createdAt,value
2023-01-06T00:04:00.804Z,8.51
2023-01-06T00:19:03.339Z,8.59
2023-01-06T00:34:06.208Z,8.47
2023-01-06T00:49:08.505Z,8.42
2023-01-06T01:04:14.618Z,8.64
2023-01-06T01:19:17.081Z,8.79
2023-01-06T01:34:20.488Z,8.63
2023-01-06T01:49:27.089Z,8.51
2023-01-06T02:04:33.362Z,8.50
2023-01-06T02:19:47.223Z,8.60
2023-01-06T02:34:57.325Z,8.72
2023-01-06T02:49:59.045Z,8.69
2023-01-06T03:05:05.113Z,8.65
2023-01-06T03:20:07.268Z,8.89
2023-01-06T03:35:28.795Z,8.87
2023-01-06T03:50:37.431Z,8.79
2023-01-06T04:05:39.625Z,8.50
2023-01-06T04:20:41.457Z,8.44
2023-01-06T04:35:44.526Z,8.59
2023-01-06T04:50:46.294Z,8.44
2023-01-06T05:05:48.095Z,8.42
2023-01-06T05:20:53.983Z,8.48
2023-01-06T05:36:07.040Z,8.62
2023-01-06T05:51:12.327Z,8.94
2023-01-06T06:06:14.924Z,8.89
2023-01-06T06:21:19.153Z,9.01
2023-01-06T06:36:21.907Z,9.02
2023-01-06T06:51:24.212Z,9.51
2023-01-06T07:06:28.834Z,9.70
2023-01-06T07:21:30.739Z,9.03
2023-01-06T07:36:33.103Z,9.24
2023-01-06T07:51:34.932Z,9.36
2023-01-06T08:06:40.396Z,9.52
2023-01-06T08:21:42.224Z,9.51
2023-01-06T08:36:45.007Z,9.84
2023-01-06T08:51:46.880Z,10.12
2023-01-06T09:06:48.771Z,9.80
2023-01-06T09:21:50.727Z,9.62
2023-01-06T09:36:52.654Z,9.62
2023-01-06T09:51:59.925Z,10.13
2023-01-06T13:33:35.943Z,5.08
2023-01-06T13:48:43.976Z,4.40
2023-01-06T14:03:47.682Z,4.07
2023-01-06T14:18:53.364Z,3.96
2023-01-06T14:34:03.468Z,3.79
2023-01-06T14:49:14.206Z,3.41
2023-01-06T15:04:27.182Z,3.00
2023-01-06T15:19:30.927Z,2.59
2023-01-06T15:34:34.506Z,2.29
2023-01-06T15:49:53.704Z,2.39
2023-01-06T16:04:55.942Z,2.16
2023-01-06T16:20:00.820Z,2.10
2023-01-06T16:35:10.538Z,1.92
2023-01-06T16:50:23.239Z,1.79
2023-01-06T17:05:43.714Z,1.63
2023-01-06T17:20:45.504Z,1.60
2023-01-06T17:35:51.484Z,1.62
2023-01-06T17:50:57.133Z,1.48
2023-01-06T18:06:14.096Z,1.03
2023-01-06T18:21:16.172Z,1.01
2023-01-06T18:36:18.443Z,0.60
2023-01-06T18:51:23.753Z,0.32
2023-01-06T19:06:44.328Z,0.02
2023-01-06T19:21:46.217Z,-0.43
2023-01-06T19:36:53.615Z,-0.84
2023-01-06T19:51:55.614Z,-1.12
2023-01-06T20:06:57.397Z,-1.04
2023-01-06T20:22:00.205Z,-1.29
2023-01-06T20:37:02.592Z,-1.46
2023-01-06T20:52:09.558Z,-1.33
2023-01-06T21:07:11.383Z,-1.57
2023-01-06T21:22:13.243Z,-1.88
2023-01-06T21:37:15.908Z,-2.26
2023-01-06T21:52:18.162Z,-2.58
2023-01-06T22:07:21.360Z,-2.66
2023-01-06T22:22:24.560Z,-2.63
2023-01-06T22:37:26.832Z,-2.96
2023-01-06T22:52:29.179Z,-2.79
2023-01-06T23:07:31.019Z,-2.72
2023-01-06T23:22:32.877Z,-3.23
2023-01-06T23:37:34.966Z,-3.11
2023-01-06T23:52:36.766Z,-3.13
